Time;durP1;ratioP1;P1;durP2;ratioP2;P2;SDS_P1;SDS_P2;PMS_P1;PMS_P2;Temp;Humidity;BMP_temperature;BMP_pressure;BME280_temperature;BME280_humidity;BME280_pressure;Samples;Min_cycle;Max_cycle;Signal;HPM_P1;HPM_P2
2022/01/24 00:01:12;;;;;;;1.63;1.40;;;4.40;98.20;;;;;;4962240;28;20538;-74
2022/01/24 00:03:40;;;;;;;6.20;5.63;;;4.40;98.20;;;;;;4981610;28;21405;-74
2022/01/24 00:06:10;;;;;;;1.70;1.40;;;4.40;98.20;;;;;;4962752;28;20477;-74
2022/01/24 00:08:37;;;;;;;1.60;1.30;;;4.50;98.20;;;;;;4981238;28;20474;-74
2022/01/24 00:11:08;;;;;;;1.60;1.40;;;4.50;98.20;;;;;;4960660;28;20466;-74
2022/01/24 00:16:47;;;;;;;1.70;1.50;;;4.50;98.20;;;;;;4899358;29;20513;-74
2022/01/24 00:27:29;;;;;;;1.63;1.40;;;4.60;98.20;;;;;;4970770;28;20557;-74
2022/01/24 00:29:55;;;;;;;1.70;1.40;;;4.70;98.20;;;;;;4971011;28;20557;-74
2022/01/24 00:32:22;;;;;;;1.63;1.33;;;4.70;98.20;;;;;;4970163;28;20493;-74
2022/01/24 00:34:50;;;;;;;1.67;1.30;;;4.80;98.20;;;;;;4972880;28;20822;-74
2022/01/24 00:37:17;;;;;;;1.63;1.30;;;4.80;98.20;;;;;;4970146;28;20500;-75
2022/01/24 00:39:44;;;;;;;1.70;1.40;;;4.80;98.20;;;;;;4972320;28;20472;-74
2022/01/24 00:42:21;;;;;;;1.60;1.37;;;4.70;98.20;;;;;;4969240;28;20493;-74
2022/01/24 00:45:01;;;;;;;1.70;1.40;;;4.70;98.20;;;;;;4972090;28;20465;-74
2022/01/24 00:47:42;;;;;;;1.70;1.50;;;4.80;98.20;;;;;;4978806;28;20524;-74
2022/01/24 00:53:17;;;;;;;1.70;1.40;;;4.80;98.20;;;;;;4973446;28;20493;-74
2022/01/24 00:55:45;;;;;;;1.60;1.40;;;4.80;98.20;;;;;;4966689;28;20458;-74
2022/01/24 00:58:12;;;;;;;1.70;1.50;;;4.80;98.20;;;;;;4974163;28;21037;-74
2022/01/24 01:00:39;;;;;;;1.63;1.30;;;4.80;98.20;;;;;;4968977;28;20481;-74
2022/01/24 01:03:06;;;;;;;1.60;1.40;;;4.80;98.20;;;;;;4976296;28;20679;-74
2022/01/24 01:05:50;;;;;;;1.70;1.40;;;4.90;98.20;;;;;;4969353;28;20473;-74
2022/01/24 01:19:15;;;;;;;1.70;1.40;;;5.00;98.20;;;;;;4978990;28;20485;-75
2022/01/24 01:21:43;;;;;;;1.67;1.30;;;4.90;98.20;;;;;;4964919;28;20579;-74
2022/01/24 01:24:10;;;;;;;1.60;1.40;;;4.90;98.20;;;;;;4976393;28;21299;-74
2022/01/24 01:26:41;;;;;;;1.60;1.30;;;4.90;98.20;;;;;;4964642;28;20575;-74
2022/01/24 01:29:13;;;;;;;1.70;1.53;;;4.90;98.20;;;;;;4975739;28;21044;-74
2022/01/24 01:31:47;;;;;;;1.70;1.40;;;4.90;98.20;;;;;;4964419;28;20496;-74
2022/01/24 01:34:29;;;;;;;1.70;1.40;;;4.80;98.20;;;;;;4973141;28;21037;-74
2022/01/24 01:37:22;;;;;;;1.60;1.40;;;4.80;98.20;;;;;;4967587;28;20477;-74
2022/01/24 01:40:22;;;;;;;1.60;1.30;;;4.80;98.20;;;;;;4973866;28;20558;-74
2022/01/24 01:54:12;;;;;;;1.63;1.30;;;4.70;98.20;;;;;;4986102;28;20899;-74
2022/01/24 01:56:40;;;;;;;1.60;1.30;;;4.70;98.20;;;;;;4968568;28;21004;-74
2022/01/24 01:59:07;;;;;;;1.67;1.33;;;4.70;98.20;;;;;;4979417;28;20486;-74
2022/01/24 02:01:34;;;;;;;1.70;1.40;;;4.70;98.20;;;;;;4967052;28;20780;-74
2022/01/24 02:04:03;;;;;;;1.70;1.40;;;4.70;98.20;;;;;;4981765;28;20836;-74
2022/01/24 02:06:30;;;;;;;1.63;1.37;;;4.70;98.20;;;;;;4967528;28;20503;-74
2022/01/24 02:09:04;;;;;;;1.60;1.30;;;4.70;98.20;;;;;;4981011;28;20540;-74
2022/01/24 02:11:31;;;;;;;1.70;1.50;;;4.70;98.20;;;;;;4966704;28;20580;-74
2022/01/24 02:14:02;;;;;;;1.67;1.30;;;4.70;98.20;;;;;;4981380;28;20477;-74
2022/01/24 02:16:37;;;;;;;1.60;1.30;;;4.70;98.20;;;;;;4977910;28;20484;-74
2022/01/24 02:19:15;;;;;;;1.63;1.40;;;4.60;98.20;;;;;;4983359;28;20540;-74
2022/01/24 02:21:47;;;;;;;2.07;1.83;;;4.70;98.20;;;;;;4967687;28;20491;-74
2022/01/24 02:24:17;;;;;;;1.70;1.30;;;4.70;98.20;;;;;;4978543;28;20964;-74
2022/01/24 02:26:48;;;;;;;1.70;1.40;;;4.70;98.20;;;;;;4959104;28;20531;-74
2022/01/24 02:29:23;;;;;;;1.70;1.40;;;4.70;98.20;;;;;;4972673;28;20469;-74
2022/01/24 02:31:52;;;;;;;1.67;1.40;;;4.70;98.20;;;;;;4971529;28;20495;-74
2022/01/24 02:34:26;;;;;;;1.70;1.40;;;4.70;98.20;;;;;;4980271;28;20516;-74
2022/01/24 02:36:57;;;;;;;1.60;1.30;;;4.70;98.20;;;;;;4969895;28;20480;-74
2022/01/24 02:50:49;;;;;;;1.60;1.30;;;4.80;98.20;;;;;;4974228;28;20441;-74
2022/01/24 02:53:17;;;;;;;1.70;1.40;;;4.80;98.20;;;;;;4984985;28;20886;-74
2022/01/24 02:55:44;;;;;;;1.70;1.40;;;4.80;98.20;;;;;;4972275;28;20578;-74
2022/01/24 02:58:11;;;;;;;1.60;1.30;;;4.90;98.20;;;;;;4974892;28;20482;-74
2022/01/24 03:00:39;;;;;;;1.60;1.33;;;4.90;98.20;;;;;;4970085;28;20470;-74
2022/01/24 03:03:07;;;;;;;1.63;1.40;;;4.90;98.20;;;;;;4975639;28;20488;-74
2022/01/24 03:05:35;;;;;;;1.70;1.40;;;4.90;98.20;;;;;;4971449;28;20469;-74
2022/01/24 03:08:02;;;;;;;1.60;1.30;;;4.90;98.20;;;;;;4979766;28;20489;-74
2022/01/24 03:10:37;;;;;;;1.70;1.43;;;4.90;98.20;;;;;;4971930;28;20474;-74
2022/01/24 03:13:18;;;;;;;1.60;1.30;;;4.90;98.20;;;;;;4975420;28;20546;-74
2022/01/24 03:15:46;;;;;;;1.60;1.30;;;4.90;98.20;;;;;;4970896;28;20497;-74
2022/01/24 03:18:13;;;;;;;1.63;1.30;;;5.00;98.20;;;;;;4961976;28;20862;-74
2022/01/24 03:20:40;;;;;;;1.60;1.30;;;5.00;98.20;;;;;;4968893;28;20470;-74
2022/01/24 03:23:08;;;;;;;1.63;1.40;;;5.00;98.20;;;;;;4973838;28;20485;-74
2022/01/24 03:25:36;;;;;;;1.60;1.30;;;5.00;98.20;;;;;;4965159;28;20461;-74
2022/01/24 03:28:04;;;;;;;1.63;1.30;;;5.00;98.20;;;;;;4975112;28;20512;-74
2022/01/24 03:30:32;;;;;;;1.63;1.30;;;5.00;98.20;;;;;;4967718;28;21033;-74
2022/01/24 03:32:59;;;;;;;1.60;1.30;;;5.00;98.20;;;;;;4972995;28;20516;-74
2022/01/24 03:35:26;;;;;;;1.60;1.30;;;5.00;98.20;;;;;;4970745;28;20466;-74
2022/01/24 03:37:53;;;;;;;1.70;1.50;;;5.00;98.20;;;;;;4974677;28;20484;-74
2022/01/24 03:40:20;;;;;;;1.60;1.30;;;5.10;98.20;;;;;;4969593;28;20862;-74
2022/01/24 03:42:50;;;;;;;1.63;1.30;;;5.10;98.20;;;;;;4974726;28;20515;-74
2022/01/24 03:45:24;;;;;;;1.60;1.30;;;5.00;98.20;;;;;;4965955;28;20458;-74
2022/01/24 03:48:03;;;;;;;1.67;1.40;;;5.10;98.20;;;;;;4972288;28;20901;-74
2022/01/24 03:50:30;;;;;;;1.60;1.30;;;5.10;98.20;;;;;;4972081;28;20473;-74
2022/01/24 03:52:57;;;;;;;1.67;1.37;;;5.10;98.20;;;;;;4974979;28;20485;-74
2022/01/24 03:55:23;;;;;;;1.67;1.37;;;5.10;98.20;;;;;;4969449;28;20466;-74
2022/01/24 03:57:52;;;;;;;1.67;1.40;;;5.10;98.20;;;;;;4981622;28;20492;-74
2022/01/24 04:00:19;;;;;;;1.83;1.63;;;5.10;98.20;;;;;;4968891;28;20469;-74
2022/01/24 04:02:46;;;;;;;1.63;1.30;;;5.10;98.20;;;;;;4974066;28;20517;-74
2022/01/24 04:05:12;;;;;;;1.60;1.30;;;5.10;98.20;;;;;;4970392;28;20466;-74
2022/01/24 04:07:41;;;;;;;1.60;1.23;;;5.10;98.20;;;;;;4973512;28;20496;-74
2022/01/24 04:10:09;;;;;;;1.67;1.40;;;5.10;98.20;;;;;;4973380;28;20462;-74
2022/01/24 04:12:39;;;;;;;1.60;1.30;;;5.10;98.20;;;;;;4972345;28;20488;-75
2022/01/24 04:15:25;;;;;;;1.70;1.40;;;5.10;98.20;;;;;;4976944;28;20558;-74
2022/01/24 04:18:09;;;;;;;1.70;1.43;;;5.10;98.20;;;;;;4974492;28;21005;-74
2022/01/24 04:23:21;;;;;;;1.60;1.30;;;5.10;98.20;;;;;;4958009;28;21013;-74
2022/01/24 04:25:48;;;;;;;1.60;1.40;;;5.10;98.20;;;;;;4959548;28;20461;-74
2022/01/24 04:28:15;;;;;;;1.70;1.43;;;5.10;98.20;;;;;;4980386;28;20498;-74
2022/01/24 04:30:43;;;;;;;1.70;1.40;;;5.10;98.20;;;;;;4971158;28;20462;-74
2022/01/24 04:33:10;;;;;;;1.70;1.37;;;5.10;98.20;;;;;;4974168;28;20561;-74
2022/01/24 04:35:37;;;;;;;1.60;1.30;;;5.10;98.20;;;;;;4970085;28;20825;-74
2022/01/24 04:38:04;;;;;;;1.60;1.30;;;5.10;98.20;;;;;;4975770;28;20485;-74
2022/01/24 04:40:30;;;;;;;1.60;1.30;;;5.10;98.20;;;;;;4968017;28;20466;-74
2022/01/24 04:43:06;;;;;;;1.60;1.30;;;5.10;98.20;;;;;;4973194;28;20484;-74
2022/01/24 04:45:51;;;;;;;1.67;1.33;;;5.10;98.20;;;;;;4972312;28;20464;-74
2022/01/24 04:51:12;;;;;;;1.63;1.30;;;5.10;98.20;;;;;;4960083;28;20532;-75
2022/01/24 04:56:19;;;;;;;1.70;1.60;;;5.10;98.20;;;;;;4962014;28;20472;-73
2022/01/24 04:58:46;;;;;;;1.67;1.40;;;5.10;98.20;;;;;;4998343;23;20537;-75
2022/01/24 05:01:13;;;;;;;1.60;1.40;;;5.10;98.20;;;;;;4960452;28;20473;-75
2022/01/24 05:03:41;;;;;;;1.67;1.30;;;5.10;98.20;;;;;;4973249;28;20501;-75
2022/01/24 05:06:08;;;;;;;1.70;1.43;;;5.00;98.20;;;;;;4957942;28;20484;-75
2022/01/24 05:08:35;;;;;;;1.67;1.37;;;5.00;98.20;;;;;;4976950;28;20482;-75
2022/01/24 05:11:06;;;;;;;1.70;1.40;;;5.00;98.20;;;;;;4938451;28;20570;-75
2022/01/24 05:24:38;;;;;;;1.70;1.33;;;5.00;98.20;;;;;;4917475;28;20492;-75
2022/01/24 05:27:06;;;;;;;1.63;1.40;;;5.00;98.20;;;;;;4950349;28;21071;-75
2022/01/24 05:29:33;;;;;;;1.60;1.40;;;5.00;98.20;;;;;;4972651;28;20486;-75
2022/01/24 05:32:00;;;;;;;1.60;1.33;;;5.00;98.20;;;;;;4957372;28;20486;-75
2022/01/24 05:34:28;;;;;;;1.60;1.30;;;5.00;98.20;;;;;;4956258;28;20827;-75
2022/01/24 05:36:55;;;;;;;1.60;1.30;;;5.00;98.20;;;;;;4949004;28;20490;-73
2022/01/24 05:39:21;;;;;;;1.70;1.40;;;5.00;98.20;;;;;;4955183;28;20505;-75
2022/01/24 05:41:48;;;;;;;1.70;1.50;;;5.00;98.20;;;;;;4947466;28;20478;-75
2022/01/24 05:44:15;;;;;;;1.60;1.30;;;5.00;98.20;;;;;;4957529;28;20466;-75
2022/01/24 05:46:42;;;;;;;1.70;1.53;;;4.90;98.20;;;;;;4946361;28;20856;-75
2022/01/24 05:49:08;;;;;;;1.60;1.40;;;4.90;98.20;;;;;;4956624;28;20549;-75
2022/01/24 05:51:37;;;;;;;1.60;1.30;;;4.90;98.20;;;;;;4943268;28;20488;-75
2022/01/24 05:54:04;;;;;;;1.70;1.40;;;4.90;98.20;;;;;;4957921;28;20546;-75
2022/01/24 05:56:30;;;;;;;1.70;1.47;;;4.90;98.20;;;;;;4949163;28;20484;-75
2022/01/24 05:58:57;;;;;;;1.63;1.40;;;4.80;98.20;;;;;;4971634;28;21341;-75
2022/01/24 06:01:24;;;;;;;1.60;1.30;;;4.80;98.20;;;;;;4957797;28;20478;-75
2022/01/24 06:03:50;;;;;;;2.33;2.13;;;4.80;98.20;;;;;;4960578;28;20848;-75
2022/01/24 06:06:17;;;;;;;1.67;1.33;;;4.70;98.20;;;;;;4942839;28;21135;-75
2022/01/24 06:08:45;;;;;;;1.70;1.40;;;4.70;98.20;;;;;;4959734;28;20483;-75
2022/01/24 06:11:12;;;;;;;1.70;1.50;;;4.70;98.20;;;;;;4940796;28;20999;-75
2022/01/24 06:13:39;;;;;;;1.60;1.40;;;4.70;98.20;;;;;;4961371;28;20462;-75
2022/01/24 06:16:06;;;;;;;1.60;1.40;;;4.70;98.20;;;;;;4949716;28;20475;-75
2022/01/24 06:18:33;;;;;;;1.60;1.30;;;4.70;98.20;;;;;;4958899;28;20483;-75
2022/01/24 06:21:00;;;;;;;1.60;1.30;;;4.70;98.20;;;;;;4940691;28;20463;-75
2022/01/24 06:23:26;;;;;;;1.70;1.30;;;4.70;98.20;;;;;;4963426;28;20478;-75
2022/01/24 06:25:55;;;;;;;1.63;1.40;;;4.70;98.20;;;;;;4943829;28;20480;-75
2022/01/24 06:28:21;;;;;;;1.67;1.40;;;4.70;98.20;;;;;;4971984;28;20896;-75
2022/01/24 06:30:48;;;;;;;1.60;1.30;;;4.70;98.20;;;;;;4961727;28;20470;-74
2022/01/24 06:33:15;;;;;;;1.70;1.50;;;4.70;98.20;;;;;;4968162;28;20478;-75
2022/01/24 06:35:42;;;;;;;1.67;1.40;;;4.80;98.20;;;;;;4967503;28;20987;-75
2022/01/24 06:38:09;;;;;;;1.60;1.40;;;4.70;98.20;;;;;;4964864;28;20854;-73
2022/01/24 06:40:35;;;;;;;1.60;1.30;;;4.80;98.20;;;;;;4952827;28;20467;-75
2022/01/24 06:43:04;;;;;;;1.70;1.40;;;4.80;98.20;;;;;;4957175;28;20521;-75
2022/01/24 06:45:31;;;;;;;1.67;1.40;;;4.80;98.20;;;;;;4956201;28;20837;-75
2022/01/24 06:47:57;;;;;;;1.60;1.30;;;4.80;98.20;;;;;;4964031;28;21063;-75
2022/01/24 06:50:24;;;;;;;1.70;1.40;;;4.80;98.20;;;;;;4961955;28;20984;-75
2022/01/24 06:52:51;;;;;;;1.67;1.33;;;4.80;98.20;;;;;;4966033;28;20666;-75
2022/01/24 06:55:18;;;;;;;1.60;1.30;;;4.80;98.20;;;;;;4953231;28;20463;-75
2022/01/24 06:57:45;;;;;;;1.60;1.30;;;4.80;98.20;;;;;;4958537;28;20493;-75
2022/01/24 07:00:14;;;;;;;1.60;1.30;;;4.80;98.20;;;;;;4952398;28;20502;-75
2022/01/24 07:02:41;;;;;;;1.70;1.50;;;4.80;98.20;;;;;;4963646;28;20484;-74
2022/01/24 07:05:08;;;;;;;1.63;1.40;;;4.70;98.20;;;;;;4967026;28;20494;-75
2022/01/24 07:07:35;;;;;;;1.60;1.30;;;4.70;98.20;;;;;;4953301;28;20574;-75
2022/01/24 07:10:02;;;;;;;1.67;1.30;;;4.70;98.20;;;;;;4953217;28;20470;-75
2022/01/24 07:12:28;;;;;;;1.63;1.40;;;4.70;98.20;;;;;;4955737;28;20483;-73
2022/01/24 07:14:56;;;;;;;1.67;1.40;;;4.70;98.20;;;;;;4954831;28;20494;-75
2022/01/24 07:17:57;;;;;;;1.70;1.60;;;4.70;98.20;;;;;;4954900;28;20493;-75
2022/01/24 07:20:22;;;;;;;1.70;1.40;;;4.70;98.20;;;;;;4954027;28;20483;-75
2022/01/24 07:22:49;;;;;;;1.70;1.40;;;4.70;98.20;;;;;;4958308;28;20485;-75
2022/01/24 07:25:15;;;;;;;1.60;1.30;;;4.70;98.20;;;;;;4951399;28;20862;-75
2022/01/24 07:27:42;;;;;;;1.60;1.30;;;4.70;98.20;;;;;;4962071;28;20489;-74
2022/01/24 07:30:10;;;;;;;1.70;1.40;;;4.70;98.20;;;;;;4953145;28;20463;-75
2022/01/24 07:32:38;;;;;;;1.60;1.30;;;4.70;98.20;;;;;;4956290;28;20494;-72
2022/01/24 07:35:06;;;;;;;1.60;1.30;;;4.70;98.20;;;;;;4953064;28;20550;-73
2022/01/24 07:37:32;;;;;;;1.70;1.40;;;4.70;98.20;;;;;;4953621;28;20489;-73
2022/01/24 07:39:59;;;;;;;1.67;1.37;;;4.70;98.20;;;;;;4953647;28;20495;-73
2022/01/24 07:42:50;;;;;;;1.63;1.37;;;4.70;98.20;;;;;;4954008;28;20991;-73
2022/01/24 07:45:15;;;;;;;1.60;1.30;;;4.60;98.20;;;;;;4946995;28;20494;-72
2022/01/24 07:47:44;;;;;;;1.60;1.30;;;4.70;98.20;;;;;;4955380;28;20832;-72
2022/01/24 07:50:12;;;;;;;1.70;1.40;;;4.70;98.20;;;;;;4952202;28;20471;-72
2022/01/24 07:52:39;;;;;;;1.60;1.33;;;4.70;98.20;;;;;;4955526;28;20493;-74
2022/01/24 07:55:07;;;;;;;1.63;1.30;;;4.70;98.20;;;;;;4951752;28;20478;-73
2022/01/24 07:57:33;;;;;;;1.60;1.40;;;4.70;98.20;;;;;;4953459;28;20511;-74
2022/01/24 08:00:00;;;;;;;1.60;1.40;;;4.80;98.20;;;;;;4954160;28;20487;-72
2022/01/24 08:02:27;;;;;;;1.60;1.30;;;4.70;98.20;;;;;;4955695;28;20485;-72
2022/01/24 08:04:55;;;;;;;1.70;1.40;;;4.70;98.20;;;;;;4957730;28;20470;-72
2022/01/24 08:07:22;;;;;;;1.60;1.30;;;4.80;98.20;;;;;;4950829;28;20481;-72
2022/01/24 08:09:48;;;;;;;1.70;1.40;;;4.80;98.20;;;;;;4954665;28;20483;-72
2022/01/24 08:12:17;;;;;;;1.70;1.50;;;4.80;98.20;;;;;;4954009;28;20492;-73
2022/01/24 08:14:44;;;;;;;1.63;1.30;;;4.90;98.20;;;;;;4952284;28;20814;-72
2022/01/24 08:17:11;;;;;;;1.60;1.30;;;5.00;98.20;;;;;;4951948;28;20514;-72
2022/01/24 08:19:38;;;;;;;1.60;1.20;;;5.10;98.20;;;;;;4949999;28;20515;-73
2022/01/24 08:22:06;;;;;;;1.60;1.30;;;5.20;98.20;;;;;;4944916;28;20486;-72
2022/01/24 08:24:32;;;;;;;1.70;1.40;;;5.30;98.20;;;;;;4953791;28;20475;-73
2022/01/24 08:26:59;;;;;;;1.60;1.30;;;5.40;98.20;;;;;;4958797;28;20520;-75
2022/01/24 08:29:26;;;;;;;1.60;1.30;;;5.50;98.20;;;;;;4961276;28;20833;-74
2022/01/24 08:31:53;;;;;;;1.67;1.40;;;5.60;98.20;;;;;;4946425;28;20490;-74
2022/01/24 08:34:20;;;;;;;2.23;2.03;;;5.70;98.20;;;;;;4962577;28;20470;-74
2022/01/24 08:36:47;;;;;;;1.63;1.40;;;5.70;98.20;;;;;;4944547;28;20497;-74
2022/01/24 08:39:15;;;;;;;1.70;1.47;;;5.70;98.20;;;;;;4958159;28;20505;-74
2022/01/24 08:41:56;;;;;;;1.60;1.30;;;5.60;98.20;;;;;;4955158;28;20492;-74
2022/01/24 08:45:40;;;;;;;2.03;1.83;;;5.60;98.20;;;;;;4961797;28;20465;-74
2022/01/24 08:47:12;;;;;;;1.70;1.30;;;5.50;98.20;;;;;;4947582;28;20482;-74
2022/01/24 08:49:39;;;;;;;1.60;1.30;;;5.50;98.20;;;;;;4945833;28;20999;-74
2022/01/24 08:52:06;;;;;;;1.60;1.30;;;5.50;98.20;;;;;;4948193;28;20596;-75
2022/01/24 08:54:34;;;;;;;1.60;1.30;;;5.50;98.20;;;;;;4950026;28;20462;-74
2022/01/24 08:57:02;;;;;;;1.60;1.27;;;5.50;98.20;;;;;;4943382;28;21080;-73
2022/01/24 08:59:30;;;;;;;1.60;1.30;;;5.40;98.20;;;;;;4952495;28;20493;-73
2022/01/24 09:01:57;;;;;;;1.63;1.30;;;5.40;98.20;;;;;;4954197;28;20575;-73
2022/01/24 09:04:24;;;;;;;1.60;1.30;;;5.40;98.20;;;;;;4952362;28;20910;-73
2022/01/24 09:06:51;;;;;;;1.67;1.30;;;5.40;98.20;;;;;;4949288;28;20496;-73
2022/01/24 09:09:19;;;;;;;1.60;1.30;;;5.30;98.20;;;;;;4957517;28;20868;-73
2022/01/24 09:11:47;;;;;;;1.70;1.40;;;5.30;98.20;;;;;;4955917;28;20611;-72
2022/01/24 09:14:14;;;;;;;1.70;1.30;;;5.30;98.20;;;;;;4958883;28;20466;-73
2022/01/24 09:16:41;;;;;;;3.20;3.00;;;5.30;98.20;;;;;;4943426;28;20492;-73
2022/01/24 09:19:07;;;;;;;1.60;1.20;;;5.30;98.20;;;;;;4953854;28;20482;-72
2022/01/24 09:21:35;;;;;;;1.60;1.30;;;5.40;98.20;;;;;;4940872;28;20489;-73
2022/01/24 09:24:02;;;;;;;1.67;1.40;;;5.40;98.20;;;;;;4954251;28;20851;-73
2022/01/24 09:26:28;;;;;;;1.63;1.40;;;5.50;98.20;;;;;;4940766;28;21094;-73
2022/01/24 09:28:57;;;;;;;1.60;1.30;;;5.60;98.20;;;;;;4965622;28;20482;-73
2022/01/24 09:31:23;;;;;;;1.70;1.40;;;5.60;98.20;;;;;;4935124;28;20490;-72
2022/01/24 09:33:50;;;;;;;1.70;1.40;;;5.70;98.20;;;;;;4958973;28;20473;-72
2022/01/24 09:36:17;;;;;;;1.70;1.60;;;5.70;98.20;;;;;;4935198;28;20492;-72
2022/01/24 09:38:44;;;;;;;1.60;1.30;;;5.70;98.20;;;;;;4959067;28;20886;-72
2022/01/24 09:41:14;;;;;;;1.67;1.30;;;5.70;98.20;;;;;;4937770;28;20523;-73
2022/01/24 09:43:43;;;;;;;1.60;1.23;;;5.70;98.20;;;;;;4952751;28;20955;-72
2022/01/24 09:46:12;;;;;;;1.60;1.30;;;5.70;98.20;;;;;;4936634;28;20545;-72
2022/01/24 09:48:40;;;;;;;1.60;1.30;;;5.70;98.20;;;;;;4957290;28;20805;-73
2022/01/24 09:51:08;;;;;;;1.60;1.30;;;5.70;98.20;;;;;;4937891;28;20486;-73
2022/01/24 09:53:37;;;;;;;1.60;1.33;;;5.70;98.20;;;;;;4962670;28;20751;-71
2022/01/24 09:56:05;;;;;;;1.60;1.30;;;5.80;98.20;;;;;;4937131;28;21018;-71
2022/01/24 09:58:34;;;;;;;1.60;1.30;;;5.80;98.20;;;;;;4959077;28;20490;-71
2022/01/24 10:01:02;;;;;;;1.60;1.30;;;5.80;98.20;;;;;;4951074;28;20490;-70
2022/01/24 10:03:30;;;;;;;1.60;1.30;;;5.80;98.20;;;;;;4963586;28;20467;-71
2022/01/24 10:05:58;;;;;;;1.60;1.30;;;5.80;98.20;;;;;;4946566;28;20493;-71
2022/01/24 10:08:26;;;;;;;1.60;1.30;;;5.80;98.20;;;;;;4965666;28;20486;-72
2022/01/24 10:10:55;;;;;;;1.60;1.30;;;5.80;98.20;;;;;;4939316;28;20462;-72
2022/01/24 10:16:31;;;;;;;1.60;1.20;;;5.80;98.20;;;;;;4944030;28;20531;-71
2022/01/24 10:19:06;;;;;;;1.60;1.30;;;5.90;98.20;;;;;;4967245;28;21132;-71
2022/01/24 10:21:41;;;;;;;1.60;1.30;;;5.90;98.20;;;;;;4952270;28;21388;-71
2022/01/24 10:24:08;;;;;;;1.60;1.20;;;6.00;98.20;;;;;;4958032;28;20478;-71
2022/01/24 10:26:35;;;;;;;1.60;1.30;;;6.00;98.20;;;;;;4944809;28;20477;-73
2022/01/24 10:29:09;;;;;;;1.60;1.30;;;5.90;98.20;;;;;;4958473;28;20489;-71
2022/01/24 10:31:45;;;;;;;1.60;1.30;;;5.90;98.20;;;;;;4941437;28;20481;-73
2022/01/24 10:34:18;;;;;;;1.60;1.30;;;5.90;98.20;;;;;;4959815;28;20465;-71
2022/01/24 10:36:47;;;;;;;1.60;1.23;;;5.90;98.20;;;;;;4950989;28;20600;-71
2022/01/24 10:39:27;;;;;;;1.60;1.30;;;5.90;98.20;;;;;;4963790;28;20540;-72
2022/01/24 10:42:34;;;;;;;1.60;1.30;;;5.90;98.20;;;;;;4941379;28;20520;-70
2022/01/24 10:45:03;;;;;;;1.60;1.30;;;6.00;98.20;;;;;;4951396;28;20611;-70
2022/01/24 10:47:33;;;;;;;1.60;1.27;;;5.90;98.20;;;;;;4949918;28;20481;-71
2022/01/24 10:50:04;;;;;;;1.70;1.40;;;5.90;98.20;;;;;;4946165;28;20544;-70
2022/01/24 10:52:33;;;;;;;1.60;1.30;;;6.00;98.20;;;;;;4945202;28;21161;-71
2022/01/24 10:55:13;;;;;;;1.60;1.40;;;6.00;98.20;;;;;;4950975;28;20549;-70
2022/01/24 10:57:41;;;;;;;1.60;1.30;;;6.00;98.20;;;;;;4950185;28;20486;-71
2022/01/24 11:00:13;;;;;;;1.67;1.30;;;6.00;98.20;;;;;;4953463;28;20573;-71
2022/01/24 11:02:42;;;;;;;1.60;1.20;;;6.00;98.20;;;;;;4949795;28;20494;-72
2022/01/24 11:05:16;;;;;;;1.60;1.30;;;6.10;98.20;;;;;;4962085;28;20916;-71
2022/01/24 11:07:51;;;;;;;1.63;1.20;;;6.10;98.20;;;;;;4957323;28;20592;-71
2022/01/24 11:10:18;;;;;;;1.60;1.20;;;6.20;98.20;;;;;;4947264;28;20467;-70
2022/01/24 11:12:44;;;;;;;1.67;1.30;;;6.20;98.20;;;;;;4949938;28;20855;-71
2022/01/24 11:15:12;;;;;;;1.60;1.20;;;6.20;98.20;;;;;;4947513;28;20936;-71
2022/01/24 11:17:39;;;;;;;1.70;1.40;;;6.20;98.20;;;;;;4953193;28;20502;-71
2022/01/24 11:20:11;;;;;;;1.60;1.20;;;6.30;98.20;;;;;;4948672;28;20822;-73
2022/01/24 11:22:43;;;;;;;1.70;1.50;;;6.40;98.20;;;;;;4951058;28;20489;-71
2022/01/24 11:25:11;;;;;;;1.60;1.37;;;6.40;98.20;;;;;;4948805;28;20904;-70
2022/01/24 11:27:39;;;;;;;1.60;1.20;;;6.40;98.20;;;;;;4955069;28;20524;-70
2022/01/24 11:30:09;;;;;;;1.60;1.20;;;6.50;98.20;;;;;;4951773;28;21080;-71
2022/01/24 11:32:40;;;;;;;1.60;1.20;;;6.50;98.20;;;;;;4950619;28;20502;-71
2022/01/24 11:35:09;;;;;;;1.60;1.20;;;6.50;98.20;;;;;;4960415;28;20465;-72
2022/01/24 11:37:41;;;;;;;1.63;1.20;;;6.50;98.20;;;;;;4952109;28;20498;-71
2022/01/24 11:40:12;;;;;;;1.70;1.40;;;6.60;98.20;;;;;;4951490;28;20503;-72
2022/01/24 11:42:45;;;;;;;1.60;1.30;;;6.50;98.20;;;;;;4960030;28;20953;-72
2022/01/24 11:45:15;;;;;;;1.70;1.30;;;6.50;98.20;;;;;;4952700;28;20475;-72
2022/01/24 11:47:44;;;;;;;1.70;1.40;;;6.50;98.20;;;;;;4955668;28;20950;-72
2022/01/24 11:50:36;;;;;;;1.60;1.20;;;6.50;98.20;;;;;;4948418;28;20886;-72
2022/01/24 11:53:21;;;;;;;1.67;1.40;;;6.50;98.20;;;;;;4954305;28;20482;-72
2022/01/24 11:55:48;;;;;;;1.60;1.20;;;6.50;98.20;;;;;;4943321;28;20466;-71
2022/01/24 11:58:24;;;;;;;1.70;1.40;;;6.50;98.20;;;;;;4962245;28;20494;-71
2022/01/24 12:00:55;;;;;;;1.90;1.60;;;6.50;98.20;;;;;;4942233;28;20525;-71
2022/01/24 12:03:26;;;;;;;1.60;1.20;;;6.50;98.20;;;;;;4961767;28;20478;-72
2022/01/24 12:05:56;;;;;;;1.70;1.40;;;6.50;98.20;;;;;;4945402;28;20825;-72
2022/01/24 12:08:33;;;;;;;1.60;1.30;;;6.40;98.20;;;;;;4959686;28;20506;-72
2022/01/24 12:11:14;;;;;;;1.60;1.30;;;6.40;98.20;;;;;;4939288;28;20458;-72
2022/01/24 12:13:43;;;;;;;1.60;1.30;;;6.40;98.20;;;;;;4962095;28;20555;-72
2022/01/24 12:16:11;;;;;;;1.70;1.40;;;6.40;98.20;;;;;;4941755;28;20858;-72
2022/01/24 12:19:02;;;;;;;1.60;1.30;;;6.40;98.20;;;;;;4959798;28;20486;-71
2022/01/24 12:21:34;;;;;;;1.60;1.30;;;6.40;98.20;;;;;;4939775;28;20513;-71
2022/01/24 12:24:08;;;;;;;1.60;1.30;;;6.40;98.20;;;;;;4959926;28;20471;-73
2022/01/24 12:26:37;;;;;;;1.67;1.37;;;6.40;98.20;;;;;;4940974;28;20485;-71
2022/01/24 12:29:10;;;;;;;1.60;1.20;;;6.40;98.20;;;;;;4954641;28;20486;-71
2022/01/24 12:31:46;;;;;;;1.60;1.30;;;6.50;98.20;;;;;;4940618;28;20489;-72
2022/01/24 12:34:28;;;;;;;1.60;1.20;;;6.40;98.20;;;;;;4954842;28;20462;-71
2022/01/24 12:37:03;;;;;;;1.60;1.30;;;6.40;98.20;;;;;;4948670;28;20907;-72
2022/01/24 12:39:40;;;;;;;1.60;1.20;;;6.30;98.20;;;;;;4943085;28;20501;-72
2022/01/24 12:42:14;;;;;;;1.60;1.20;;;6.30;98.20;;;;;;4948018;28;21089;-72
2022/01/24 12:47:28;;;;;;;1.60;1.20;;;6.20;98.20;;;;;;4945190;28;20927;-72
2022/01/24 12:49:56;;;;;;;1.70;1.47;;;6.20;98.20;;;;;;4942341;28;20470;-72
2022/01/24 12:52:25;;;;;;;1.60;1.20;;;6.20;98.20;;;;;;4944519;28;20815;-72
2022/01/24 12:54:57;;;;;;;1.70;1.60;;;6.20;98.20;;;;;;4942710;28;20550;-73
2022/01/24 12:57:29;;;;;;;2.17;1.97;;;6.30;98.20;;;;;;4952477;28;20974;-72
2022/01/24 12:59:58;;;;;;;1.60;1.30;;;6.20;98.20;;;;;;4946250;28;20466;-72
2022/01/24 13:02:27;;;;;;;1.60;1.30;;;6.20;98.20;;;;;;4950274;28;20481;-72
2022/01/24 13:05:02;;;;;;;1.67;1.40;;;6.20;98.20;;;;;;4947999;28;20467;-72
2022/01/24 13:07:31;;;;;;;1.60;1.30;;;6.20;98.20;;;;;;4944482;28;20592;-72
2022/01/24 13:10:22;;;;;;;1.70;1.40;;;6.20;98.20;;;;;;4947529;28;20577;-71
2022/01/24 13:12:57;;;;;;;1.60;1.30;;;6.20;98.20;;;;;;4948514;28;20548;-72
2022/01/24 13:20:23;;;;;;;1.63;1.30;;;6.20;98.20;;;;;;4948777;28;20465;-72
2022/01/24 13:21:10;;;;;;;1.60;1.20;;;6.20;98.20;;;;;;4940035;28;20829;-72
2022/01/24 13:23:43;;;;;;;1.60;1.30;;;6.20;98.20;;;;;;4957876;28;20470;-72
2022/01/24 13:26:14;;;;;;;1.60;1.30;;;6.20;98.20;;;;;;4941778;28;20493;-72
2022/01/24 13:28:41;;;;;;;2.30;2.10;;;6.20;98.20;;;;;;4956586;28;20669;-72
2022/01/24 13:31:08;;;;;;;1.60;1.30;;;6.20;98.20;;;;;;4927317;28;20725;-72
2022/01/24 13:33:40;;;;;;;1.60;1.30;;;6.30;98.20;;;;;;4960335;28;20462;-71
2022/01/24 13:36:10;;;;;;;1.60;1.20;;;6.20;98.20;;;;;;4938295;28;20858;-72
2022/01/24 13:38:38;;;;;;;1.63;1.40;;;6.20;98.20;;;;;;4954715;28;20914;-71
2022/01/24 13:41:08;;;;;;;1.60;1.27;;;6.10;98.20;;;;;;4937580;28;20490;-71
2022/01/24 13:43:50;;;;;;;1.60;1.30;;;6.10;98.20;;;;;;4958697;28;20471;-71
2022/01/24 13:46:19;;;;;;;1.60;1.30;;;6.10;98.20;;;;;;4938106;28;20965;-71
2022/01/24 13:48:48;;;;;;;1.60;1.30;;;6.10;98.20;;;;;;4958134;28;20574;-71
2022/01/24 13:51:20;;;;;;;1.60;1.20;;;6.10;98.20;;;;;;4936539;28;20509;-72
2022/01/24 13:53:53;;;;;;;1.80;1.57;;;6.00;98.20;;;;;;4958543;28;20494;-72
2022/01/24 13:56:27;;;;;;;1.60;1.27;;;6.10;98.20;;;;;;4937106;28;20473;-72
2022/01/24 13:59:16;;;;;;;1.60;1.37;;;6.10;98.20;;;;;;4958724;28;20509;-71
2022/01/24 14:01:57;;;;;;;1.60;1.40;;;6.10;98.20;;;;;;4942540;28;20489;-71
2022/01/24 14:04:30;;;;;;;1.60;1.30;;;6.20;98.20;;;;;;4952297;28;20471;-72
2022/01/24 14:07:00;;;;;;;1.60;1.40;;;6.20;98.20;;;;;;4944039;28;20568;-72
2022/01/24 14:09:45;;;;;;;1.60;1.20;;;6.20;98.20;;;;;;4951927;28;20503;-72
2022/01/24 14:12:14;;;;;;;1.60;1.20;;;6.10;98.20;;;;;;4949813;28;20495;-72
2022/01/24 14:14:54;;;;;;;1.60;1.20;;;6.10;98.20;;;;;;4948644;28;20479;-72
2022/01/24 14:17:34;;;;;;;1.60;1.30;;;6.00;98.20;;;;;;4946441;28;20492;-71
2022/01/24 14:20:03;;;;;;;1.60;1.20;;;6.00;98.20;;;;;;4945257;28;20463;-72
2022/01/24 14:22:43;;;;;;;1.60;1.23;;;6.00;98.20;;;;;;4948371;28;20493;-72
2022/01/24 14:25:16;;;;;;;1.60;1.30;;;5.90;98.20;;;;;;4944430;28;20470;-72
2022/01/24 14:27:45;;;;;;;1.60;1.40;;;5.90;98.20;;;;;;4952143;28;20916;-71
2022/01/24 14:30:19;;;;;;;1.60;1.30;;;5.80;98.20;;;;;;4945259;28;20494;-74